sensor_id;sensor_type;location;lat;lon;timestamp;P1;durP1;ratioP1;P2;durP2;ratioP2
5428;SDS011;2737;52.386;9.980;2022-11-27T00:02:06;23.50;;;11.87;;
5428;SDS011;2737;52.386;9.980;2022-11-27T00:04:33;23.20;;;12.77;;
5428;SDS011;2737;52.386;9.980;2022-11-27T00:07:00;21.53;;;12.73;;
5428;SDS011;2737;52.386;9.980;2022-11-27T00:09:27;25.43;;;11.83;;
5428;SDS011;2737;52.386;9.980;2022-11-27T00:11:55;25.00;;;11.30;;
5428;SDS011;2737;52.386;9.980;2022-11-27T00:14:22;26.60;;;10.97;;
5428;SDS011;2737;52.386;9.980;2022-11-27T00:16:49;20.53;;;11.77;;
5428;SDS011;2737;52.386;9.980;2022-11-27T00:19:17;23.73;;;11.90;;
5428;SDS011;2737;52.386;9.980;2022-11-27T00:21:44;29.37;;;12.20;;
5428;SDS011;2737;52.386;9.980;2022-11-27T00:24:11;24.60;;;12.00;;
5428;SDS011;2737;52.386;9.980;2022-11-27T00:26:38;32.23;;;12.53;;
5428;SDS011;2737;52.386;9.980;2022-11-27T00:29:05;25.73;;;11.70;;
5428;SDS011;2737;52.386;9.980;2022-11-27T00:31:33;26.83;;;13.10;;
5428;SDS011;2737;52.386;9.980;2022-11-27T00:34:02;25.33;;;11.43;;
5428;SDS011;2737;52.386;9.980;2022-11-27T00:36:32;37.33;;;13.27;;
5428;SDS011;2737;52.386;9.980;2022-11-27T00:39:00;24.50;;;13.03;;
5428;SDS011;2737;52.386;9.980;2022-11-27T00:41:28;26.17;;;13.20;;
5428;SDS011;2737;52.386;9.980;2022-11-27T00:43:56;25.70;;;13.03;;
5428;SDS011;2737;52.386;9.980;2022-11-27T00:46:24;28.50;;;13.00;;
5428;SDS011;2737;52.386;9.980;2022-11-27T00:48:53;34.67;;;12.80;;
5428;SDS011;2737;52.386;9.980;2022-11-27T00:51:21;25.07;;;13.53;;
5428;SDS011;2737;52.386;9.980;2022-11-27T00:53:50;27.80;;;12.43;;
5428;SDS011;2737;52.386;9.980;2022-11-27T00:56:20;28.63;;;12.70;;
5428;SDS011;2737;52.386;9.980;2022-11-27T00:58:48;23.80;;;13.53;;
5428;SDS011;2737;52.386;9.980;2022-11-27T01:01:16;27.00;;;13.53;;
5428;SDS011;2737;52.386;9.980;2022-11-27T01:03:45;23.53;;;12.33;;
5428;SDS011;2737;52.386;9.980;2022-11-27T01:06:13;24.33;;;13.50;;
5428;SDS011;2737;52.386;9.980;2022-11-27T01:08:41;34.13;;;14.23;;
5428;SDS011;2737;52.386;9.980;2022-11-27T01:11:12;26.23;;;11.93;;
5428;SDS011;2737;52.386;9.980;2022-11-27T01:13:40;22.90;;;12.17;;
5428;SDS011;2737;52.386;9.980;2022-11-27T01:16:08;30.00;;;13.60;;
5428;SDS011;2737;52.386;9.980;2022-11-27T01:18:37;28.53;;;13.40;;
5428;SDS011;2737;52.386;9.980;2022-11-27T01:21:05;27.03;;;12.40;;
5428;SDS011;2737;52.386;9.980;2022-11-27T01:23:32;24.80;;;12.93;;
5428;SDS011;2737;52.386;9.980;2022-11-27T01:26:00;26.37;;;12.90;;
5428;SDS011;2737;52.386;9.980;2022-11-27T01:28:29;22.93;;;12.87;;
5428;SDS011;2737;52.386;9.980;2022-11-27T01:30:57;28.27;;;13.57;;
5428;SDS011;2737;52.386;9.980;2022-11-27T01:33:24;27.57;;;12.80;;
5428;SDS011;2737;52.386;9.980;2022-11-27T01:35:52;22.33;;;12.10;;
5428;SDS011;2737;52.386;9.980;2022-11-27T01:38:20;23.37;;;12.63;;
5428;SDS011;2737;52.386;9.980;2022-11-27T01:40:48;24.70;;;12.20;;
5428;SDS011;2737;52.386;9.980;2022-11-27T01:43:15;20.73;;;11.70;;
5428;SDS011;2737;52.386;9.980;2022-11-27T01:45:44;27.00;;;12.20;;
5428;SDS011;2737;52.386;9.980;2022-11-27T01:48:11;25.73;;;13.23;;
5428;SDS011;2737;52.386;9.980;2022-11-27T01:50:39;31.23;;;14.80;;
5428;SDS011;2737;52.386;9.980;2022-11-27T01:53:08;27.73;;;12.37;;
5428;SDS011;2737;52.386;9.980;2022-11-27T01:55:41;22.10;;;11.20;;
5428;SDS011;2737;52.386;9.980;2022-11-27T01:58:14;27.00;;;12.63;;
5428;SDS011;2737;52.386;9.980;2022-11-27T02:00:46;24.10;;;11.90;;
5428;SDS011;2737;52.386;9.980;2022-11-27T02:03:13;27.47;;;14.10;;
5428;SDS011;2737;52.386;9.980;2022-11-27T02:05:41;28.17;;;13.60;;
5428;SDS011;2737;52.386;9.980;2022-11-27T02:08:08;25.10;;;12.23;;
5428;SDS011;2737;52.386;9.980;2022-11-27T02:10:43;26.47;;;12.73;;
5428;SDS011;2737;52.386;9.980;2022-11-27T02:13:15;22.87;;;12.10;;
5428;SDS011;2737;52.386;9.980;2022-11-27T02:15:49;25.10;;;13.87;;
5428;SDS011;2737;52.386;9.980;2022-11-27T02:18:24;25.70;;;12.60;;
5428;SDS011;2737;52.386;9.980;2022-11-27T02:20:59;26.40;;;13.07;;
5428;SDS011;2737;52.386;9.980;2022-11-27T02:26:35;25.37;;;13.13;;
5428;SDS011;2737;52.386;9.980;2022-11-27T02:29:27;27.43;;;12.10;;
5428;SDS011;2737;52.386;9.980;2022-11-27T02:31:58;26.77;;;13.57;;
5428;SDS011;2737;52.386;9.980;2022-11-27T02:34:32;28.03;;;14.37;;
5428;SDS011;2737;52.386;9.980;2022-11-27T02:37:08;28.40;;;13.33;;
5428;SDS011;2737;52.386;9.980;2022-11-27T02:39:41;25.83;;;13.23;;
5428;SDS011;2737;52.386;9.980;2022-11-27T02:42:15;28.20;;;13.80;;
5428;SDS011;2737;52.386;9.980;2022-11-27T02:44:48;25.30;;;12.60;;
5428;SDS011;2737;52.386;9.980;2022-11-27T02:47:18;30.50;;;14.00;;
5428;SDS011;2737;52.386;9.980;2022-11-27T02:49:46;33.90;;;14.73;;
5428;SDS011;2737;52.386;9.980;2022-11-27T02:52:16;28.43;;;13.13;;
5428;SDS011;2737;52.386;9.980;2022-11-27T02:54:45;33.43;;;14.10;;
5428;SDS011;2737;52.386;9.980;2022-11-27T02:57:16;27.00;;;13.50;;
5428;SDS011;2737;52.386;9.980;2022-11-27T02:59:46;29.37;;;13.67;;
5428;SDS011;2737;52.386;9.980;2022-11-27T03:02:16;31.70;;;14.80;;
5428;SDS011;2737;52.386;9.980;2022-11-27T03:04:49;26.13;;;12.50;;
5428;SDS011;2737;52.386;9.980;2022-11-27T03:07:21;24.17;;;12.97;;
5428;SDS011;2737;52.386;9.980;2022-11-27T03:09:53;27.93;;;12.80;;
5428;SDS011;2737;52.386;9.980;2022-11-27T03:12:23;27.20;;;13.33;;
5428;SDS011;2737;52.386;9.980;2022-11-27T03:14:52;27.17;;;12.90;;
5428;SDS011;2737;52.386;9.980;2022-11-27T03:17:23;23.80;;;12.00;;
5428;SDS011;2737;52.386;9.980;2022-11-27T03:20:03;24.83;;;13.20;;
5428;SDS011;2737;52.386;9.980;2022-11-27T03:22:36;26.13;;;13.33;;
5428;SDS011;2737;52.386;9.980;2022-11-27T03:25:03;24.87;;;13.33;;
5428;SDS011;2737;52.386;9.980;2022-11-27T03:27:31;22.77;;;12.67;;
5428;SDS011;2737;52.386;9.980;2022-11-27T03:30:03;27.90;;;13.07;;
5428;SDS011;2737;52.386;9.980;2022-11-27T03:32:32;34.53;;;12.10;;
5428;SDS011;2737;52.386;9.980;2022-11-27T03:35:00;21.60;;;11.63;;
5428;SDS011;2737;52.386;9.980;2022-11-27T03:37:28;27.60;;;12.17;;
5428;SDS011;2737;52.386;9.980;2022-11-27T03:39:55;24.03;;;11.60;;
5428;SDS011;2737;52.386;9.980;2022-11-27T03:42:23;24.00;;;10.53;;
5428;SDS011;2737;52.386;9.980;2022-11-27T03:44:55;26.77;;;12.00;;
5428;SDS011;2737;52.386;9.980;2022-11-27T03:47:34;25.60;;;11.93;;
5428;SDS011;2737;52.386;9.980;2022-11-27T03:50:16;24.00;;;11.70;;
5428;SDS011;2737;52.386;9.980;2022-11-27T03:52:50;22.63;;;11.50;;
5428;SDS011;2737;52.386;9.980;2022-11-27T03:55:26;23.67;;;11.40;;
5428;SDS011;2737;52.386;9.980;2022-11-27T03:57:58;24.27;;;11.30;;
5428;SDS011;2737;52.386;9.980;2022-11-27T04:00:29;21.70;;;10.63;;
5428;SDS011;2737;52.386;9.980;2022-11-27T04:03:01;24.00;;;11.27;;
5428;SDS011;2737;52.386;9.980;2022-11-27T04:05:29;20.87;;;9.83;;
5428;SDS011;2737;52.386;9.980;2022-11-27T04:07:57;23.13;;;9.13;;
5428;SDS011;2737;52.386;9.980;2022-11-27T04:10:24;19.53;;;9.23;;
5428;SDS011;2737;52.386;9.980;2022-11-27T04:12:51;23.43;;;9.73;;
5428;SDS011;2737;52.386;9.980;2022-11-27T04:15:18;20.63;;;10.80;;
5428;SDS011;2737;52.386;9.980;2022-11-27T04:17:45;21.80;;;9.17;;
5428;SDS011;2737;52.386;9.980;2022-11-27T04:20:13;23.80;;;8.77;;
5428;SDS011;2737;52.386;9.980;2022-11-27T04:22:41;21.47;;;9.40;;
5428;SDS011;2737;52.386;9.980;2022-11-27T04:25:08;24.20;;;10.50;;
5428;SDS011;2737;52.386;9.980;2022-11-27T04:27:35;15.30;;;8.37;;
5428;SDS011;2737;52.386;9.980;2022-11-27T04:30:03;19.83;;;8.87;;
5428;SDS011;2737;52.386;9.980;2022-11-27T04:32:31;25.53;;;9.10;;
5428;SDS011;2737;52.386;9.980;2022-11-27T04:34:58;17.20;;;8.43;;
5428;SDS011;2737;52.386;9.980;2022-11-27T04:37:26;19.37;;;8.13;;
5428;SDS011;2737;52.386;9.980;2022-11-27T04:39:53;18.33;;;8.77;;
5428;SDS011;2737;52.386;9.980;2022-11-27T04:42:21;16.70;;;8.30;;
5428;SDS011;2737;52.386;9.980;2022-11-27T04:44:48;15.47;;;7.87;;
5428;SDS011;2737;52.386;9.980;2022-11-27T04:47:15;17.83;;;8.20;;
5428;SDS011;2737;52.386;9.980;2022-11-27T04:49:42;13.50;;;7.27;;
5428;SDS011;2737;52.386;9.980;2022-11-27T04:52:09;20.70;;;8.77;;
5428;SDS011;2737;52.386;9.980;2022-11-27T04:54:38;17.43;;;8.10;;
5428;SDS011;2737;52.386;9.980;2022-11-27T04:57:05;18.20;;;7.73;;
5428;SDS011;2737;52.386;9.980;2022-11-27T04:59:32;14.07;;;8.10;;
5428;SDS011;2737;52.386;9.980;2022-11-27T05:01:59;15.03;;;7.90;;
5428;SDS011;2737;52.386;9.980;2022-11-27T05:04:26;16.73;;;7.73;;
5428;SDS011;2737;52.386;9.980;2022-11-27T05:06:53;17.90;;;8.80;;
5428;SDS011;2737;52.386;9.980;2022-11-27T05:09:20;16.53;;;7.40;;
5428;SDS011;2737;52.386;9.980;2022-11-27T05:11:48;17.93;;;8.20;;
5428;SDS011;2737;52.386;9.980;2022-11-27T05:14:15;17.97;;;8.00;;
5428;SDS011;2737;52.386;9.980;2022-11-27T05:16:45;17.33;;;8.27;;
5428;SDS011;2737;52.386;9.980;2022-11-27T05:19:13;16.30;;;7.43;;
5428;SDS011;2737;52.386;9.980;2022-11-27T05:21:41;12.83;;;7.00;;
5428;SDS011;2737;52.386;9.980;2022-11-27T05:24:09;14.23;;;8.00;;
5428;SDS011;2737;52.386;9.980;2022-11-27T05:26:37;19.57;;;7.73;;
5428;SDS011;2737;52.386;9.980;2022-11-27T05:29:06;15.13;;;7.63;;
5428;SDS011;2737;52.386;9.980;2022-11-27T05:31:34;14.40;;;7.00;;
5428;SDS011;2737;52.386;9.980;2022-11-27T05:34:02;16.63;;;8.03;;
5428;SDS011;2737;52.386;9.980;2022-11-27T05:36:29;16.83;;;8.07;;
5428;SDS011;2737;52.386;9.980;2022-11-27T05:38:58;13.53;;;7.30;;
5428;SDS011;2737;52.386;9.980;2022-11-27T05:41:25;12.80;;;7.30;;
5428;SDS011;2737;52.386;9.980;2022-11-27T05:43:53;15.93;;;7.63;;
5428;SDS011;2737;52.386;9.980;2022-11-27T05:46:22;17.93;;;7.67;;
5428;SDS011;2737;52.386;9.980;2022-11-27T05:48:49;19.50;;;6.90;;
5428;SDS011;2737;52.386;9.980;2022-11-27T05:51:16;19.83;;;8.40;;
5428;SDS011;2737;52.386;9.980;2022-11-27T05:53:44;16.87;;;7.90;;
5428;SDS011;2737;52.386;9.980;2022-11-27T05:56:11;18.03;;;8.47;;
5428;SDS011;2737;52.386;9.980;2022-11-27T05:58:40;18.50;;;8.30;;
5428;SDS011;2737;52.386;9.980;2022-11-27T06:01:09;18.40;;;8.30;;
5428;SDS011;2737;52.386;9.980;2022-11-27T06:03:38;16.80;;;8.93;;
5428;SDS011;2737;52.386;9.980;2022-11-27T06:06:05;20.30;;;10.00;;
5428;SDS011;2737;52.386;9.980;2022-11-27T06:08:34;21.07;;;8.53;;
5428;SDS011;2737;52.386;9.980;2022-11-27T06:11:05;18.30;;;10.50;;
5428;SDS011;2737;52.386;9.980;2022-11-27T06:13:33;29.10;;;13.47;;
5428;SDS011;2737;52.386;9.980;2022-11-27T06:16:05;28.93;;;12.97;;
5428;SDS011;2737;52.386;9.980;2022-11-27T06:18:32;20.70;;;11.60;;
5428;SDS011;2737;52.386;9.980;2022-11-27T06:21:01;22.70;;;10.77;;
5428;SDS011;2737;52.386;9.980;2022-11-27T06:23:31;19.67;;;11.30;;
5428;SDS011;2737;52.386;9.980;2022-11-27T06:26:07;17.67;;;9.90;;
5428;SDS011;2737;52.386;9.980;2022-11-27T06:28:36;20.30;;;9.00;;
5428;SDS011;2737;52.386;9.980;2022-11-27T06:31:04;17.23;;;8.83;;
5428;SDS011;2737;52.386;9.980;2022-11-27T06:33:32;14.63;;;9.60;;
5428;SDS011;2737;52.386;9.980;2022-11-27T06:36:00;17.87;;;8.17;;
5428;SDS011;2737;52.386;9.980;2022-11-27T06:38:28;15.87;;;7.70;;
5428;SDS011;2737;52.386;9.980;2022-11-27T06:41:00;16.27;;;8.63;;
5428;SDS011;2737;52.386;9.980;2022-11-27T06:43:28;20.93;;;8.90;;
5428;SDS011;2737;52.386;9.980;2022-11-27T06:45:55;15.87;;;8.63;;
5428;SDS011;2737;52.386;9.980;2022-11-27T06:48:22;15.50;;;8.87;;
5428;SDS011;2737;52.386;9.980;2022-11-27T06:50:49;12.80;;;8.17;;
5428;SDS011;2737;52.386;9.980;2022-11-27T06:53:18;22.90;;;8.50;;
5428;SDS011;2737;52.386;9.980;2022-11-27T06:55:45;24.10;;;9.50;;
5428;SDS011;2737;52.386;9.980;2022-11-27T06:58:12;15.63;;;9.23;;
5428;SDS011;2737;52.386;9.980;2022-11-27T07:00:39;17.17;;;9.70;;
5428;SDS011;2737;52.386;9.980;2022-11-27T07:03:06;25.73;;;9.40;;
5428;SDS011;2737;52.386;9.980;2022-11-27T07:05:33;16.03;;;9.10;;
5428;SDS011;2737;52.386;9.980;2022-11-27T07:08:04;19.20;;;8.00;;
5428;SDS011;2737;52.386;9.980;2022-11-27T07:10:35;16.03;;;8.27;;
5428;SDS011;2737;52.386;9.980;2022-11-27T07:13:02;19.20;;;9.37;;
5428;SDS011;2737;52.386;9.980;2022-11-27T07:15:29;20.07;;;9.23;;
5428;SDS011;2737;52.386;9.980;2022-11-27T07:17:57;16.23;;;8.47;;
5428;SDS011;2737;52.386;9.980;2022-11-27T07:20:24;25.87;;;9.47;;
5428;SDS011;2737;52.386;9.980;2022-11-27T07:22:51;16.33;;;8.93;;
5428;SDS011;2737;52.386;9.980;2022-11-27T07:25:18;21.03;;;9.53;;
5428;SDS011;2737;52.386;9.980;2022-11-27T07:27:47;18.83;;;8.47;;
5428;SDS011;2737;52.386;9.980;2022-11-27T07:30:14;17.20;;;8.87;;
5428;SDS011;2737;52.386;9.980;2022-11-27T07:32:41;17.83;;;8.70;;
5428;SDS011;2737;52.386;9.980;2022-11-27T07:35:08;21.73;;;8.87;;
5428;SDS011;2737;52.386;9.980;2022-11-27T07:37:35;18.53;;;8.93;;
5428;SDS011;2737;52.386;9.980;2022-11-27T07:40:03;17.40;;;9.20;;
5428;SDS011;2737;52.386;9.980;2022-11-27T07:42:30;16.40;;;8.30;;
5428;SDS011;2737;52.386;9.980;2022-11-27T07:44:59;20.03;;;9.23;;
5428;SDS011;2737;52.386;9.980;2022-11-27T07:47:26;17.67;;;9.80;;
5428;SDS011;2737;52.386;9.980;2022-11-27T07:49:55;16.47;;;8.97;;
5428;SDS011;2737;52.386;9.980;2022-11-27T07:52:24;26.70;;;9.30;;
5428;SDS011;2737;52.386;9.980;2022-11-27T07:54:51;24.50;;;9.50;;
5428;SDS011;2737;52.386;9.980;2022-11-27T07:57:18;25.87;;;9.43;;
5428;SDS011;2737;52.386;9.980;2022-11-27T07:59:45;23.87;;;9.53;;
5428;SDS011;2737;52.386;9.980;2022-11-27T08:02:14;22.87;;;9.53;;
5428;SDS011;2737;52.386;9.980;2022-11-27T08:04:41;26.10;;;10.27;;
5428;SDS011;2737;52.386;9.980;2022-11-27T08:07:08;18.23;;;9.83;;
5428;SDS011;2737;52.386;9.980;2022-11-27T08:09:36;22.00;;;9.13;;
5428;SDS011;2737;52.386;9.980;2022-11-27T08:12:04;17.87;;;9.33;;
5428;SDS011;2737;52.386;9.980;2022-11-27T08:14:32;17.00;;;8.53;;
5428;SDS011;2737;52.386;9.980;2022-11-27T08:16:59;14.83;;;8.60;;
5428;SDS011;2737;52.386;9.980;2022-11-27T08:19:27;17.53;;;9.53;;
5428;SDS011;2737;52.386;9.980;2022-11-27T08:21:54;29.27;;;10.23;;
5428;SDS011;2737;52.386;9.980;2022-11-27T08:24:22;19.57;;;8.80;;
5428;SDS011;2737;52.386;9.980;2022-11-27T08:26:49;16.13;;;9.23;;
5428;SDS011;2737;52.386;9.980;2022-11-27T08:29:17;16.87;;;8.23;;
5428;SDS011;2737;52.386;9.980;2022-11-27T08:31:44;17.17;;;8.60;;
5428;SDS011;2737;52.386;9.980;2022-11-27T08:34:11;11.60;;;7.80;;
5428;SDS011;2737;52.386;9.980;2022-11-27T08:36:39;16.87;;;8.00;;
5428;SDS011;2737;52.386;9.980;2022-11-27T08:39:06;20.27;;;9.03;;
5428;SDS011;2737;52.386;9.980;2022-11-27T08:41:33;13.70;;;8.33;;
5428;SDS011;2737;52.386;9.980;2022-11-27T08:44:00;15.80;;;9.00;;
5428;SDS011;2737;52.386;9.980;2022-11-27T08:46:27;28.57;;;9.73;;
5428;SDS011;2737;52.386;9.980;2022-11-27T08:48:54;19.33;;;8.33;;
5428;SDS011;2737;52.386;9.980;2022-11-27T08:51:21;24.43;;;10.70;;
5428;SDS011;2737;52.386;9.980;2022-11-27T08:53:50;18.97;;;9.47;;
5428;SDS011;2737;52.386;9.980;2022-11-27T08:56:18;17.40;;;8.27;;
5428;SDS011;2737;52.386;9.980;2022-11-27T08:58:46;20.20;;;8.67;;
5428;SDS011;2737;52.386;9.980;2022-11-27T09:01:14;23.47;;;9.10;;
5428;SDS011;2737;52.386;9.980;2022-11-27T09:03:42;17.20;;;9.43;;
5428;SDS011;2737;52.386;9.980;2022-11-27T09:06:10;16.50;;;8.03;;
5428;SDS011;2737;52.386;9.980;2022-11-27T09:08:39;20.63;;;8.97;;
5428;SDS011;2737;52.386;9.980;2022-11-27T09:11:09;18.37;;;9.13;;
5428;SDS011;2737;52.386;9.980;2022-11-27T09:13:37;15.83;;;8.23;;
5428;SDS011;2737;52.386;9.980;2022-11-27T09:16:05;15.40;;;8.33;;
5428;SDS011;2737;52.386;9.980;2022-11-27T09:18:34;14.53;;;8.13;;
5428;SDS011;2737;52.386;9.980;2022-11-27T09:21:01;21.50;;;8.67;;
5428;SDS011;2737;52.386;9.980;2022-11-27T09:23:31;19.37;;;9.23;;
5428;SDS011;2737;52.386;9.980;2022-11-27T09:25:58;17.10;;;8.90;;
5428;SDS011;2737;52.386;9.980;2022-11-27T09:28:27;15.87;;;8.07;;
5428;SDS011;2737;52.386;9.980;2022-11-27T09:30:55;16.00;;;9.00;;
5428;SDS011;2737;52.386;9.980;2022-11-27T09:33:23;20.20;;;9.13;;
5428;SDS011;2737;52.386;9.980;2022-11-27T09:35:52;17.77;;;8.90;;
5428;SDS011;2737;52.386;9.980;2022-11-27T09:38:19;19.70;;;8.83;;
5428;SDS011;2737;52.386;9.980;2022-11-27T09:40:48;16.17;;;8.00;;
5428;SDS011;2737;52.386;9.980;2022-11-27T09:43:16;18.10;;;8.07;;
5428;SDS011;2737;52.386;9.980;2022-11-27T09:45:47;13.57;;;7.63;;
5428;SDS011;2737;52.386;9.980;2022-11-27T09:48:19;19.33;;;9.17;;
5428;SDS011;2737;52.386;9.980;2022-11-27T09:50:51;19.30;;;8.60;;
5428;SDS011;2737;52.386;9.980;2022-11-27T09:53:22;20.60;;;9.30;;
5428;SDS011;2737;52.386;9.980;2022-11-27T09:55:53;16.27;;;8.80;;
5428;SDS011;2737;52.386;9.980;2022-11-27T09:58:26;14.97;;;8.10;;
5428;SDS011;2737;52.386;9.980;2022-11-27T10:01:09;17.27;;;9.23;;
5428;SDS011;2737;52.386;9.980;2022-11-27T10:03:39;16.97;;;8.70;;
5428;SDS011;2737;52.386;9.980;2022-11-27T10:06:13;20.37;;;8.93;;
5428;SDS011;2737;52.386;9.980;2022-11-27T10:08:51;14.07;;;8.13;;
5428;SDS011;2737;52.386;9.980;2022-11-27T10:11:29;17.10;;;8.20;;
5428;SDS011;2737;52.386;9.980;2022-11-27T10:14:03;21.37;;;9.73;;
5428;SDS011;2737;52.386;9.980;2022-11-27T10:16:46;18.10;;;9.00;;
5428;SDS011;2737;52.386;9.980;2022-11-27T10:19:21;13.60;;;8.27;;
5428;SDS011;2737;52.386;9.980;2022-11-27T10:21:54;17.63;;;8.27;;
5428;SDS011;2737;52.386;9.980;2022-11-27T10:24:26;15.50;;;7.60;;
5428;SDS011;2737;52.386;9.980;2022-11-27T10:27:01;14.93;;;9.13;;
5428;SDS011;2737;52.386;9.980;2022-11-27T10:29:38;15.63;;;7.70;;
5428;SDS011;2737;52.386;9.980;2022-11-27T10:32:12;16.67;;;9.10;;
5428;SDS011;2737;52.386;9.980;2022-11-27T10:34:42;17.13;;;9.23;;
5428;SDS011;2737;52.386;9.980;2022-11-27T10:37:13;19.97;;;8.40;;
5428;SDS011;2737;52.386;9.980;2022-11-27T10:39:44;14.33;;;7.63;;
5428;SDS011;2737;52.386;9.980;2022-11-27T10:42:16;20.03;;;7.50;;
5428;SDS011;2737;52.386;9.980;2022-11-27T10:44:49;15.43;;;8.17;;
5428;SDS011;2737;52.386;9.980;2022-11-27T10:47:24;14.90;;;8.17;;
5428;SDS011;2737;52.386;9.980;2022-11-27T10:49:53;13.00;;;7.17;;
5428;SDS011;2737;52.386;9.980;2022-11-27T10:52:21;17.43;;;6.73;;
5428;SDS011;2737;52.386;9.980;2022-11-27T10:54:50;15.03;;;7.03;;
5428;SDS011;2737;52.386;9.980;2022-11-27T11:00:18;12.50;;;6.57;;
5428;SDS011;2737;52.386;9.980;2022-11-27T11:02:48;20.27;;;7.60;;
5428;SDS011;2737;52.386;9.980;2022-11-27T11:05:25;15.33;;;6.93;;
5428;SDS011;2737;52.386;9.980;2022-11-27T11:07:54;11.70;;;7.27;;
5428;SDS011;2737;52.386;9.980;2022-11-27T11:10:26;11.70;;;6.93;;
5428;SDS011;2737;52.386;9.980;2022-11-27T11:15:51;11.03;;;6.07;;
5428;SDS011;2737;52.386;9.980;2022-11-27T11:18:22;12.00;;;6.07;;
5428;SDS011;2737;52.386;9.980;2022-11-27T11:20:51;17.93;;;6.90;;
5428;SDS011;2737;52.386;9.980;2022-11-27T11:23:22;10.60;;;6.50;;
5428;SDS011;2737;52.386;9.980;2022-11-27T11:25:57;18.10;;;6.70;;
5428;SDS011;2737;52.386;9.980;2022-11-27T11:28:27;11.97;;;6.20;;
5428;SDS011;2737;52.386;9.980;2022-11-27T11:30:56;13.07;;;6.23;;
5428;SDS011;2737;52.386;9.980;2022-11-27T11:33:27;10.67;;;5.07;;
5428;SDS011;2737;52.386;9.980;2022-11-27T11:35:56;9.63;;;5.33;;
5428;SDS011;2737;52.386;9.980;2022-11-27T11:38:33;13.83;;;5.90;;
5428;SDS011;2737;52.386;9.980;2022-11-27T11:41:01;7.80;;;5.80;;
5428;SDS011;2737;52.386;9.980;2022-11-27T11:43:30;12.83;;;5.63;;
5428;SDS011;2737;52.386;9.980;2022-11-27T11:46:07;13.27;;;6.30;;
5428;SDS011;2737;52.386;9.980;2022-11-27T11:48:52;8.67;;;5.70;;
5428;SDS011;2737;52.386;9.980;2022-11-27T11:51:23;13.50;;;5.03;;
5428;SDS011;2737;52.386;9.980;2022-11-27T11:53:59;11.10;;;5.53;;
5428;SDS011;2737;52.386;9.980;2022-11-27T11:56:37;9.17;;;5.23;;
5428;SDS011;2737;52.386;9.980;2022-11-27T11:59:10;11.60;;;4.90;;
5428;SDS011;2737;52.386;9.980;2022-11-27T12:01:52;11.00;;;4.70;;
5428;SDS011;2737;52.386;9.980;2022-11-27T12:04:37;14.80;;;6.23;;
5428;SDS011;2737;52.386;9.980;2022-11-27T12:07:18;9.37;;;5.90;;
5428;SDS011;2737;52.386;9.980;2022-11-27T12:09:54;16.13;;;6.47;;
5428;SDS011;2737;52.386;9.980;2022-11-27T12:12:38;13.60;;;6.00;;
5428;SDS011;2737;52.386;9.980;2022-11-27T12:15:16;9.80;;;5.50;;
5428;SDS011;2737;52.386;9.980;2022-11-27T12:17:54;10.13;;;5.57;;
5428;SDS011;2737;52.386;9.980;2022-11-27T12:20:28;9.53;;;6.03;;
5428;SDS011;2737;52.386;9.980;2022-11-27T12:26:01;9.03;;;6.67;;
5428;SDS011;2737;52.386;9.980;2022-11-27T12:31:44;8.73;;;5.90;;
5428;SDS011;2737;52.386;9.980;2022-11-27T12:34:28;10.50;;;5.13;;
5428;SDS011;2737;52.386;9.980;2022-11-27T12:37:11;11.63;;;6.83;;
5428;SDS011;2737;52.386;9.980;2022-11-27T12:39:54;16.00;;;8.50;;
5428;SDS011;2737;52.386;9.980;2022-11-27T12:42:29;23.37;;;11.57;;
5428;SDS011;2737;52.386;9.980;2022-11-27T12:45:00;12.87;;;7.03;;
5428;SDS011;2737;52.386;9.980;2022-11-27T12:47:33;13.30;;;7.10;;
5428;SDS011;2737;52.386;9.980;2022-11-27T12:50:06;19.37;;;8.10;;
5428;SDS011;2737;52.386;9.980;2022-11-27T12:52:41;14.63;;;7.30;;
5428;SDS011;2737;52.386;9.980;2022-11-27T12:55:14;18.77;;;10.40;;
5428;SDS011;2737;52.386;9.980;2022-11-27T12:57:46;13.17;;;6.80;;
5428;SDS011;2737;52.386;9.980;2022-11-27T13:00:18;21.53;;;10.90;;
5428;SDS011;2737;52.386;9.980;2022-11-27T13:02:49;20.07;;;10.87;;
5428;SDS011;2737;52.386;9.980;2022-11-27T13:05:25;26.23;;;9.80;;
5428;SDS011;2737;52.386;9.980;2022-11-27T13:07:57;35.53;;;20.60;;
5428;SDS011;2737;52.386;9.980;2022-11-27T13:10:34;15.73;;;9.20;;
5428;SDS011;2737;52.386;9.980;2022-11-27T13:13:08;12.57;;;8.83;;
5428;SDS011;2737;52.386;9.980;2022-11-27T13:15:41;9.93;;;7.00;;
5428;SDS011;2737;52.386;9.980;2022-11-27T13:18:13;12.83;;;6.10;;
5428;SDS011;2737;52.386;9.980;2022-11-27T13:20:45;13.83;;;4.00;;
5428;SDS011;2737;52.386;9.980;2022-11-27T13:23:15;10.50;;;5.40;;
5428;SDS011;2737;52.386;9.980;2022-11-27T13:25:44;10.80;;;4.87;;
5428;SDS011;2737;52.386;9.980;2022-11-27T13:28:18;7.63;;;3.90;;
5428;SDS011;2737;52.386;9.980;2022-11-27T13:30:50;13.03;;;4.77;;
5428;SDS011;2737;52.386;9.980;2022-11-27T13:33:23;8.37;;;4.10;;
5428;SDS011;2737;52.386;9.980;2022-11-27T13:35:59;7.77;;;4.50;;
5428;SDS011;2737;52.386;9.980;2022-11-27T13:38:29;10.93;;;4.27;;
5428;SDS011;2737;52.386;9.980;2022-11-27T13:40:58;8.57;;;4.20;;
5428;SDS011;2737;52.386;9.980;2022-11-27T13:43:33;8.77;;;4.50;;
5428;SDS011;2737;52.386;9.980;2022-11-27T13:46:06;15.53;;;4.63;;
5428;SDS011;2737;52.386;9.980;2022-11-27T13:48:37;7.77;;;4.10;;
5428;SDS011;2737;52.386;9.980;2022-11-27T13:51:07;5.40;;;3.90;;
5428;SDS011;2737;52.386;9.980;2022-11-27T13:53:38;10.43;;;3.80;;
5428;SDS011;2737;52.386;9.980;2022-11-27T13:56:07;6.97;;;3.53;;
5428;SDS011;2737;52.386;9.980;2022-11-27T13:58:35;7.90;;;3.40;;
5428;SDS011;2737;52.386;9.980;2022-11-27T14:01:11;5.70;;;3.70;;
5428;SDS011;2737;52.386;9.980;2022-11-27T14:03:42;6.03;;;3.73;;
5428;SDS011;2737;52.386;9.980;2022-11-27T14:06:20;7.10;;;3.50;;
5428;SDS011;2737;52.386;9.980;2022-11-27T14:08:56;8.40;;;3.47;;
5428;SDS011;2737;52.386;9.980;2022-11-27T14:11:30;10.77;;;6.07;;
5428;SDS011;2737;52.386;9.980;2022-11-27T14:14:00;10.03;;;3.87;;
5428;SDS011;2737;52.386;9.980;2022-11-27T14:16:37;10.80;;;4.20;;
5428;SDS011;2737;52.386;9.980;2022-11-27T14:19:20;9.43;;;3.30;;
5428;SDS011;2737;52.386;9.980;2022-11-27T14:21:50;11.20;;;3.90;;
5428;SDS011;2737;52.386;9.980;2022-11-27T14:24:23;12.27;;;4.10;;
5428;SDS011;2737;52.386;9.980;2022-11-27T14:26:53;6.67;;;4.70;;
5428;SDS011;2737;52.386;9.980;2022-11-27T14:29:21;16.60;;;3.97;;
5428;SDS011;2737;52.386;9.980;2022-11-27T14:31:56;6.63;;;3.60;;
5428;SDS011;2737;52.386;9.980;2022-11-27T14:34:25;9.30;;;3.77;;
5428;SDS011;2737;52.386;9.980;2022-11-27T14:36:53;14.97;;;3.60;;
5428;SDS011;2737;52.386;9.980;2022-11-27T14:39:22;10.80;;;3.83;;
5428;SDS011;2737;52.386;9.980;2022-11-27T14:41:54;13.83;;;3.53;;
5428;SDS011;2737;52.386;9.980;2022-11-27T14:44:23;10.80;;;3.33;;
5428;SDS011;2737;52.386;9.980;2022-11-27T14:46:50;6.27;;;3.07;;
5428;SDS011;2737;52.386;9.980;2022-11-27T14:49:18;13.90;;;3.97;;
5428;SDS011;2737;52.386;9.980;2022-11-27T14:51:47;7.80;;;3.40;;
5428;SDS011;2737;52.386;9.980;2022-11-27T14:54:16;4.57;;;3.03;;
5428;SDS011;2737;52.386;9.980;2022-11-27T14:56:48;9.00;;;3.80;;
5428;SDS011;2737;52.386;9.980;2022-11-27T14:59:17;8.47;;;3.50;;
5428;SDS011;2737;52.386;9.980;2022-11-27T15:01:46;5.13;;;3.67;;
5428;SDS011;2737;52.386;9.980;2022-11-27T15:04:25;9.70;;;3.50;;
5428;SDS011;2737;52.386;9.980;2022-11-27T15:06:53;9.27;;;3.57;;
5428;SDS011;2737;52.386;9.980;2022-11-27T15:09:23;8.23;;;3.30;;
5428;SDS011;2737;52.386;9.980;2022-11-27T15:11:55;5.93;;;3.27;;
5428;SDS011;2737;52.386;9.980;2022-11-27T15:14:24;4.30;;;3.30;;
5428;SDS011;2737;52.386;9.980;2022-11-27T15:16:54;6.10;;;3.40;;
5428;SDS011;2737;52.386;9.980;2022-11-27T15:19:23;7.07;;;3.53;;
5428;SDS011;2737;52.386;9.980;2022-11-27T15:21:54;8.63;;;3.33;;
5428;SDS011;2737;52.386;9.980;2022-11-27T15:24:29;8.63;;;3.30;;
5428;SDS011;2737;52.386;9.980;2022-11-27T15:27:18;4.83;;;3.17;;
5428;SDS011;2737;52.386;9.980;2022-11-27T15:30:00;5.90;;;2.80;;
5428;SDS011;2737;52.386;9.980;2022-11-27T15:32:41;8.93;;;4.27;;